sensor_id;sensor_type;location;lat;lon;timestamp;P1;durP1;ratioP1;P2;durP2;ratioP2
71679;SDS011;59512;42.662;23.254;2023-01-04T00:00:29;14.80;;;8.90;;
71679;SDS011;59512;42.662;23.254;2023-01-04T00:02:54;15.40;;;9.38;;
71679;SDS011;59512;42.662;23.254;2023-01-04T00:05:20;16.90;;;9.77;;
71679;SDS011;59512;42.662;23.254;2023-01-04T00:07:45;15.53;;;9.07;;
71679;SDS011;59512;42.662;23.254;2023-01-04T00:10:11;14.43;;;8.20;;
71679;SDS011;59512;42.662;23.254;2023-01-04T00:12:36;14.43;;;8.27;;
71679;SDS011;59512;42.662;23.254;2023-01-04T00:15:02;13.27;;;8.50;;
71679;SDS011;59512;42.662;23.254;2023-01-04T00:17:28;14.57;;;8.83;;
71679;SDS011;59512;42.662;23.254;2023-01-04T00:19:53;16.73;;;9.13;;
71679;SDS011;59512;42.662;23.254;2023-01-04T00:22:19;14.10;;;8.53;;
71679;SDS011;59512;42.662;23.254;2023-01-04T00:24:45;14.63;;;8.47;;
71679;SDS011;59512;42.662;23.254;2023-01-04T00:27:10;14.23;;;8.40;;
71679;SDS011;59512;42.662;23.254;2023-01-04T00:29:36;15.07;;;8.27;;
71679;SDS011;59512;42.662;23.254;2023-01-04T00:32:01;14.73;;;8.70;;
71679;SDS011;59512;42.662;23.254;2023-01-04T00:34:27;13.77;;;8.10;;
71679;SDS011;59512;42.662;23.254;2023-01-04T00:36:52;14.63;;;8.60;;
71679;SDS011;59512;42.662;23.254;2023-01-04T00:39:17;15.88;;;8.48;;
71679;SDS011;59512;42.662;23.254;2023-01-04T00:44:12;15.13;;;8.65;;
71679;SDS011;59512;42.662;23.254;2023-01-04T00:46:38;16.93;;;8.27;;
71679;SDS011;59512;42.662;23.254;2023-01-04T00:49:05;14.52;;;8.40;;
71679;SDS011;59512;42.662;23.254;2023-01-04T00:51:31;12.77;;;7.53;;
71679;SDS011;59512;42.662;23.254;2023-01-04T00:53:59;14.85;;;8.23;;
71679;SDS011;59512;42.662;23.254;2023-01-04T00:56:26;15.02;;;8.57;;
71679;SDS011;59512;42.662;23.254;2023-01-04T00:58:53;14.77;;;8.73;;
71679;SDS011;59512;42.662;23.254;2023-01-04T01:01:21;19.42;;;8.70;;
71679;SDS011;59512;42.662;23.254;2023-01-04T01:03:48;16.85;;;9.02;;
71679;SDS011;59512;42.662;23.254;2023-01-04T01:06:16;20.00;;;10.27;;
71679;SDS011;59512;42.662;23.254;2023-01-04T01:08:43;16.77;;;9.63;;
71679;SDS011;59512;42.662;23.254;2023-01-04T01:11:09;13.47;;;8.40;;
71679;SDS011;59512;42.662;23.254;2023-01-04T01:13:35;17.05;;;9.00;;
71679;SDS011;59512;42.662;23.254;2023-01-04T01:16:05;17.80;;;9.20;;
71679;SDS011;59512;42.662;23.254;2023-01-04T01:18:32;14.63;;;8.90;;
71679;SDS011;59512;42.662;23.254;2023-01-04T01:20:58;16.05;;;9.40;;
71679;SDS011;59512;42.662;23.254;2023-01-04T01:23:24;14.83;;;8.33;;
71679;SDS011;59512;42.662;23.254;2023-01-04T01:25:49;15.20;;;9.13;;
71679;SDS011;59512;42.662;23.254;2023-01-04T01:28:15;14.43;;;9.30;;
71679;SDS011;59512;42.662;23.254;2023-01-04T01:30:40;16.83;;;9.73;;
71679;SDS011;59512;42.662;23.254;2023-01-04T01:33:07;15.20;;;9.73;;
71679;SDS011;59512;42.662;23.254;2023-01-04T01:35:35;15.80;;;8.93;;
71679;SDS011;59512;42.662;23.254;2023-01-04T01:38:01;15.27;;;9.15;;
71679;SDS011;59512;42.662;23.254;2023-01-04T01:40:27;14.57;;;8.93;;
71679;SDS011;59512;42.662;23.254;2023-01-04T01:42:53;15.80;;;9.55;;
71679;SDS011;59512;42.662;23.254;2023-01-04T01:47:50;16.58;;;8.82;;
71679;SDS011;59512;42.662;23.254;2023-01-04T01:50:25;15.97;;;8.23;;
71679;SDS011;59512;42.662;23.254;2023-01-04T01:52:53;15.40;;;9.02;;
71679;SDS011;59512;42.662;23.254;2023-01-04T01:55:29;15.38;;;9.13;;
71679;SDS011;59512;42.662;23.254;2023-01-04T01:57:56;17.50;;;9.57;;
71679;SDS011;59512;42.662;23.254;2023-01-04T02:00:22;16.40;;;9.80;;
71679;SDS011;59512;42.662;23.254;2023-01-04T02:05:28;17.63;;;10.03;;
71679;SDS011;59512;42.662;23.254;2023-01-04T02:07:54;15.10;;;9.43;;
71679;SDS011;59512;42.662;23.254;2023-01-04T02:10:20;16.80;;;9.60;;
71679;SDS011;59512;42.662;23.254;2023-01-04T02:12:46;17.17;;;10.30;;
71679;SDS011;59512;42.662;23.254;2023-01-04T02:15:11;16.73;;;9.80;;
71679;SDS011;59512;42.662;23.254;2023-01-04T02:20:31;16.87;;;9.73;;
71679;SDS011;59512;42.662;23.254;2023-01-04T02:36:39;15.32;;;9.45;;
71679;SDS011;59512;42.662;23.254;2023-01-04T02:47:22;16.75;;;9.48;;
71679;SDS011;59512;42.662;23.254;2023-01-04T02:52:55;17.77;;;9.60;;
71679;SDS011;59512;42.662;23.254;2023-01-04T02:58:09;18.00;;;10.03;;
71679;SDS011;59512;42.662;23.254;2023-01-04T03:00:47;15.60;;;9.65;;
71679;SDS011;59512;42.662;23.254;2023-01-04T03:04:03;17.65;;;10.45;;
71679;SDS011;59512;42.662;23.254;2023-01-04T03:07:10;20.60;;;11.50;;
71679;SDS011;59512;42.662;23.254;2023-01-04T03:09:49;19.40;;;11.43;;
71679;SDS011;59512;42.662;23.254;2023-01-04T03:12:23;19.15;;;10.93;;
71679;SDS011;59512;42.662;23.254;2023-01-04T03:17:54;16.25;;;10.25;;
71679;SDS011;59512;42.662;23.254;2023-01-04T03:20:22;19.98;;;10.85;;
71679;SDS011;59512;42.662;23.254;2023-01-04T03:22:52;17.83;;;10.93;;
71679;SDS011;59512;42.662;23.254;2023-01-04T03:25:48;19.05;;;11.27;;
71679;SDS011;59512;42.662;23.254;2023-01-04T03:28:42;22.33;;;11.88;;
71679;SDS011;59512;42.662;23.254;2023-01-04T03:34:41;20.70;;;11.82;;
71679;SDS011;59512;42.662;23.254;2023-01-04T03:37:36;20.53;;;12.30;;
71679;SDS011;59512;42.662;23.254;2023-01-04T03:43:13;19.52;;;11.65;;
71679;SDS011;59512;42.662;23.254;2023-01-04T03:46:01;20.95;;;11.98;;
71679;SDS011;59512;42.662;23.254;2023-01-04T03:48:49;19.67;;;11.75;;
71679;SDS011;59512;42.662;23.254;2023-01-04T03:51:24;22.37;;;13.10;;
71679;SDS011;59512;42.662;23.254;2023-01-04T03:56:29;22.08;;;11.77;;
71679;SDS011;59512;42.662;23.254;2023-01-04T03:58:55;20.92;;;11.07;;
71679;SDS011;59512;42.662;23.254;2023-01-04T04:01:22;18.57;;;11.70;;
71679;SDS011;59512;42.662;23.254;2023-01-04T04:03:48;20.42;;;11.90;;
71679;SDS011;59512;42.662;23.254;2023-01-04T04:06:32;23.67;;;12.10;;
71679;SDS011;59512;42.662;23.254;2023-01-04T04:09:16;20.17;;;11.38;;
71679;SDS011;59512;42.662;23.254;2023-01-04T04:11:42;21.73;;;11.97;;
71679;SDS011;59512;42.662;23.254;2023-01-04T04:14:07;22.83;;;12.37;;
71679;SDS011;59512;42.662;23.254;2023-01-04T04:16:33;20.37;;;12.23;;
71679;SDS011;59512;42.662;23.254;2023-01-04T04:18:58;24.73;;;13.00;;
71679;SDS011;59512;42.662;23.254;2023-01-04T04:21:23;23.90;;;12.18;;
71679;SDS011;59512;42.662;23.254;2023-01-04T04:23:49;21.55;;;11.88;;
71679;SDS011;59512;42.662;23.254;2023-01-04T04:26:14;22.33;;;12.20;;
71679;SDS011;59512;42.662;23.254;2023-01-04T04:28:41;19.85;;;11.70;;
71679;SDS011;59512;42.662;23.254;2023-01-04T04:31:06;24.40;;;12.83;;
71679;SDS011;59512;42.662;23.254;2023-01-04T04:33:32;22.80;;;12.40;;
71679;SDS011;59512;42.662;23.254;2023-01-04T04:35:57;21.30;;;12.07;;
71679;SDS011;59512;42.662;23.254;2023-01-04T04:38:23;20.27;;;12.33;;
71679;SDS011;59512;42.662;23.254;2023-01-04T04:40:48;20.77;;;12.23;;
71679;SDS011;59512;42.662;23.254;2023-01-04T04:43:32;22.05;;;12.80;;
71679;SDS011;59512;42.662;23.254;2023-01-04T04:45:58;23.27;;;13.18;;
71679;SDS011;59512;42.662;23.254;2023-01-04T04:48:24;22.13;;;12.93;;
71679;SDS011;59512;42.662;23.254;2023-01-04T04:50:49;26.33;;;13.77;;
71679;SDS011;59512;42.662;23.254;2023-01-04T04:53:15;22.97;;;12.60;;
71679;SDS011;59512;42.662;23.254;2023-01-04T04:55:40;23.63;;;13.93;;
71679;SDS011;59512;42.662;23.254;2023-01-04T04:58:06;26.13;;;13.80;;
71679;SDS011;59512;42.662;23.254;2023-01-04T05:00:31;30.93;;;14.03;;
71679;SDS011;59512;42.662;23.254;2023-01-04T05:02:57;23.77;;;14.27;;
71679;SDS011;59512;42.662;23.254;2023-01-04T05:05:23;26.00;;;14.48;;
71679;SDS011;59512;42.662;23.254;2023-01-04T05:07:48;24.57;;;14.13;;
71679;SDS011;59512;42.662;23.254;2023-01-04T05:10:14;25.53;;;13.70;;
71679;SDS011;59512;42.662;23.254;2023-01-04T05:12:39;24.93;;;13.87;;
71679;SDS011;59512;42.662;23.254;2023-01-04T05:15:23;23.83;;;12.90;;
71679;SDS011;59512;42.662;23.254;2023-01-04T05:17:49;24.23;;;12.65;;
71679;SDS011;59512;42.662;23.254;2023-01-04T05:20:14;22.43;;;12.60;;
71679;SDS011;59512;42.662;23.254;2023-01-04T05:22:40;21.50;;;12.00;;
71679;SDS011;59512;42.662;23.254;2023-01-04T05:25:06;22.53;;;13.53;;
71679;SDS011;59512;42.662;23.254;2023-01-04T05:27:32;23.92;;;13.60;;
71679;SDS011;59512;42.662;23.254;2023-01-04T05:29:57;20.97;;;12.90;;
71679;SDS011;59512;42.662;23.254;2023-01-04T05:32:42;25.23;;;12.98;;
71679;SDS011;59512;42.662;23.254;2023-01-04T05:35:08;21.88;;;13.23;;
71679;SDS011;59512;42.662;23.254;2023-01-04T05:37:34;22.08;;;12.38;;
71679;SDS011;59512;42.662;23.254;2023-01-04T05:39:59;22.63;;;12.60;;
71679;SDS011;59512;42.662;23.254;2023-01-04T05:42:24;22.33;;;12.20;;
71679;SDS011;59512;42.662;23.254;2023-01-04T05:44:54;21.27;;;12.57;;
71679;SDS011;59512;42.662;23.254;2023-01-04T05:47:20;21.92;;;12.07;;
71679;SDS011;59512;42.662;23.254;2023-01-04T05:49:47;24.05;;;12.70;;
71679;SDS011;59512;42.662;23.254;2023-01-04T05:52:12;23.17;;;13.63;;
71679;SDS011;59512;42.662;23.254;2023-01-04T05:54:38;22.40;;;12.63;;
71679;SDS011;59512;42.662;23.254;2023-01-04T05:57:03;25.00;;;13.13;;
71679;SDS011;59512;42.662;23.254;2023-01-04T05:59:29;19.00;;;11.13;;
71679;SDS011;59512;42.662;23.254;2023-01-04T06:01:54;18.17;;;10.52;;
71679;SDS011;59512;42.662;23.254;2023-01-04T06:04:19;18.07;;;9.23;;
71679;SDS011;59512;42.662;23.254;2023-01-04T06:06:46;18.17;;;10.30;;
71679;SDS011;59512;42.662;23.254;2023-01-04T06:09:11;20.50;;;10.50;;
71679;SDS011;59512;42.662;23.254;2023-01-04T06:11:37;20.20;;;10.80;;
71679;SDS011;59512;42.662;23.254;2023-01-04T06:14:02;18.13;;;9.57;;
71679;SDS011;59512;42.662;23.254;2023-01-04T06:16:28;14.65;;;9.32;;
71679;SDS011;59512;42.662;23.254;2023-01-04T06:18:53;17.83;;;9.47;;
71679;SDS011;59512;42.662;23.254;2023-01-04T06:21:19;18.73;;;10.30;;
71679;SDS011;59512;42.662;23.254;2023-01-04T06:23:44;17.08;;;9.32;;
71679;SDS011;59512;42.662;23.254;2023-01-04T06:26:10;17.90;;;9.60;;
71679;SDS011;59512;42.662;23.254;2023-01-04T06:28:35;18.87;;;9.03;;
71679;SDS011;59512;42.662;23.254;2023-01-04T06:31:04;15.47;;;8.77;;
71679;SDS011;59512;42.662;23.254;2023-01-04T06:33:30;14.30;;;9.00;;
71679;SDS011;59512;42.662;23.254;2023-01-04T06:35:56;13.85;;;8.18;;
71679;SDS011;59512;42.662;23.254;2023-01-04T06:38:22;15.97;;;8.00;;
71679;SDS011;59512;42.662;23.254;2023-01-04T06:40:47;16.67;;;9.27;;
71679;SDS011;59512;42.662;23.254;2023-01-04T06:43:12;16.60;;;9.50;;
71679;SDS011;59512;42.662;23.254;2023-01-04T06:45:38;17.87;;;9.40;;
71679;SDS011;59512;42.662;23.254;2023-01-04T06:48:03;17.55;;;9.43;;
71679;SDS011;59512;42.662;23.254;2023-01-04T06:50:29;16.80;;;9.70;;
71679;SDS011;59512;42.662;23.254;2023-01-04T06:52:54;16.43;;;9.87;;
71679;SDS011;59512;42.662;23.254;2023-01-04T06:55:20;18.65;;;9.63;;
71679;SDS011;59512;42.662;23.254;2023-01-04T06:57:45;17.95;;;10.23;;
71679;SDS011;59512;42.662;23.254;2023-01-04T07:00:11;17.50;;;9.47;;
71679;SDS011;59512;42.662;23.254;2023-01-04T07:02:37;18.70;;;9.45;;
71679;SDS011;59512;42.662;23.254;2023-01-04T07:05:03;17.57;;;10.00;;
71679;SDS011;59512;42.662;23.254;2023-01-04T07:07:28;18.50;;;9.20;;
71679;SDS011;59512;42.662;23.254;2023-01-04T07:09:54;18.57;;;10.30;;
71679;SDS011;59512;42.662;23.254;2023-01-04T07:12:19;16.37;;;9.47;;
71679;SDS011;59512;42.662;23.254;2023-01-04T07:14:44;18.55;;;9.80;;
71679;SDS011;59512;42.662;23.254;2023-01-04T07:17:10;19.00;;;10.00;;
71679;SDS011;59512;42.662;23.254;2023-01-04T07:19:35;17.43;;;10.70;;
71679;SDS011;59512;42.662;23.254;2023-01-04T07:22:01;18.47;;;9.80;;
71679;SDS011;59512;42.662;23.254;2023-01-04T07:24:26;20.43;;;12.17;;
71679;SDS011;59512;42.662;23.254;2023-01-04T07:26:52;17.00;;;9.77;;
71679;SDS011;59512;42.662;23.254;2023-01-04T07:29:17;18.38;;;9.82;;
71679;SDS011;59512;42.662;23.254;2023-01-04T07:31:44;18.23;;;10.10;;
71679;SDS011;59512;42.662;23.254;2023-01-04T07:34:11;18.33;;;10.48;;
71679;SDS011;59512;42.662;23.254;2023-01-04T07:36:37;18.65;;;10.70;;
71679;SDS011;59512;42.662;23.254;2023-01-04T07:39:03;21.02;;;11.70;;
71679;SDS011;59512;42.662;23.254;2023-01-04T07:41:30;18.43;;;10.07;;
71679;SDS011;59512;42.662;23.254;2023-01-04T07:43:56;17.52;;;9.88;;
71679;SDS011;59512;42.662;23.254;2023-01-04T07:46:21;17.70;;;9.87;;
71679;SDS011;59512;42.662;23.254;2023-01-04T07:48:47;18.25;;;9.70;;
71679;SDS011;59512;42.662;23.254;2023-01-04T07:51:12;22.27;;;12.20;;
71679;SDS011;59512;42.662;23.254;2023-01-04T07:53:38;19.97;;;10.23;;
71679;SDS011;59512;42.662;23.254;2023-01-04T07:56:03;18.57;;;10.07;;
71679;SDS011;59512;42.662;23.254;2023-01-04T07:58:32;22.27;;;12.13;;
71679;SDS011;59512;42.662;23.254;2023-01-04T08:01:08;16.73;;;9.37;;
71679;SDS011;59512;42.662;23.254;2023-01-04T08:03:34;16.48;;;9.27;;
71679;SDS011;59512;42.662;23.254;2023-01-04T08:06:03;16.75;;;9.25;;
71679;SDS011;59512;42.662;23.254;2023-01-04T08:08:30;16.58;;;9.13;;
71679;SDS011;59512;42.662;23.254;2023-01-04T08:10:55;15.88;;;9.73;;
71679;SDS011;59512;42.662;23.254;2023-01-04T08:13:25;19.95;;;10.68;;
71679;SDS011;59512;42.662;23.254;2023-01-04T08:15:53;17.10;;;9.27;;
71679;SDS011;59512;42.662;23.254;2023-01-04T08:18:19;18.10;;;10.88;;
71679;SDS011;59512;42.662;23.254;2023-01-04T08:20:44;17.08;;;9.68;;
71679;SDS011;59512;42.662;23.254;2023-01-04T08:23:10;20.67;;;11.52;;
71679;SDS011;59512;42.662;23.254;2023-01-04T08:25:35;20.53;;;10.70;;
71679;SDS011;59512;42.662;23.254;2023-01-04T08:28:01;18.80;;;10.10;;
71679;SDS011;59512;42.662;23.254;2023-01-04T08:30:26;18.73;;;11.27;;
71679;SDS011;59512;42.662;23.254;2023-01-04T08:32:51;21.52;;;11.52;;
71679;SDS011;59512;42.662;23.254;2023-01-04T08:35:18;20.33;;;11.73;;
71679;SDS011;59512;42.662;23.254;2023-01-04T08:37:46;21.27;;;12.02;;
71679;SDS011;59512;42.662;23.254;2023-01-04T08:40:12;23.07;;;12.40;;
71679;SDS011;59512;42.662;23.254;2023-01-04T08:42:37;23.17;;;12.10;;
71679;SDS011;59512;42.662;23.254;2023-01-04T08:45:03;24.43;;;13.63;;
71679;SDS011;59512;42.662;23.254;2023-01-04T08:47:29;22.30;;;12.80;;
71679;SDS011;59512;42.662;23.254;2023-01-04T08:49:55;22.52;;;12.35;;
71679;SDS011;59512;42.662;23.254;2023-01-04T08:52:21;22.20;;;12.88;;
71679;SDS011;59512;42.662;23.254;2023-01-04T08:54:46;24.50;;;13.00;;
71679;SDS011;59512;42.662;23.254;2023-01-04T08:57:13;22.52;;;12.25;;
71679;SDS011;59512;42.662;23.254;2023-01-04T08:59:39;20.97;;;11.57;;
71679;SDS011;59512;42.662;23.254;2023-01-04T09:02:09;20.88;;;11.95;;
71679;SDS011;59512;42.662;23.254;2023-01-04T09:04:42;20.80;;;12.40;;
71679;SDS011;59512;42.662;23.254;2023-01-04T09:07:07;20.90;;;12.65;;
71679;SDS011;59512;42.662;23.254;2023-01-04T09:09:32;19.90;;;11.73;;
71679;SDS011;59512;42.662;23.254;2023-01-04T09:11:58;20.13;;;11.30;;
71679;SDS011;59512;42.662;23.254;2023-01-04T09:14:23;22.67;;;12.03;;
71679;SDS011;59512;42.662;23.254;2023-01-04T09:16:49;20.10;;;11.37;;
71679;SDS011;59512;42.662;23.254;2023-01-04T09:19:14;20.93;;;12.43;;
71679;SDS011;59512;42.662;23.254;2023-01-04T09:21:39;22.23;;;11.33;;
71679;SDS011;59512;42.662;23.254;2023-01-04T09:24:05;20.90;;;11.63;;
71679;SDS011;59512;42.662;23.254;2023-01-04T09:26:30;19.87;;;11.57;;
71679;SDS011;59512;42.662;23.254;2023-01-04T09:28:56;22.33;;;12.77;;
71679;SDS011;59512;42.662;23.254;2023-01-04T09:31:22;20.25;;;11.60;;
71679;SDS011;59512;42.662;23.254;2023-01-04T09:33:49;21.92;;;12.43;;
71679;SDS011;59512;42.662;23.254;2023-01-04T09:36:15;21.23;;;11.93;;
71679;SDS011;59512;42.662;23.254;2023-01-04T09:38:42;23.00;;;12.33;;
71679;SDS011;59512;42.662;23.254;2023-01-04T09:43:55;18.63;;;11.07;;
71679;SDS011;59512;42.662;23.254;2023-01-04T09:46:42;18.50;;;10.30;;
71679;SDS011;59512;42.662;23.254;2023-01-04T09:49:33;19.73;;;11.40;;
71679;SDS011;59512;42.662;23.254;2023-01-04T09:54:45;18.73;;;11.00;;
71679;SDS011;59512;42.662;23.254;2023-01-04T10:00:26;21.27;;;11.60;;
71679;SDS011;59512;42.662;23.254;2023-01-04T10:03:36;20.38;;;11.18;;
71679;SDS011;59512;42.662;23.254;2023-01-04T10:05:39;20.75;;;11.27;;
71679;SDS011;59512;42.662;23.254;2023-01-04T10:08:11;21.70;;;11.23;;
71679;SDS011;59512;42.662;23.254;2023-01-04T10:13:13;22.92;;;13.48;;
71679;SDS011;59512;42.662;23.254;2023-01-04T10:21:44;30.53;;;15.87;;
71679;SDS011;59512;42.662;23.254;2023-01-04T10:27:09;24.77;;;13.27;;
71679;SDS011;59512;42.662;23.254;2023-01-04T10:29:46;20.08;;;11.13;;
71679;SDS011;59512;42.662;23.254;2023-01-04T10:32:25;20.33;;;11.35;;
71679;SDS011;59512;42.662;23.254;2023-01-04T10:35:03;20.90;;;11.33;;
71679;SDS011;59512;42.662;23.254;2023-01-04T10:40:42;18.63;;;10.80;;
71679;SDS011;59512;42.662;23.254;2023-01-04T10:48:49;19.30;;;10.80;;
71679;SDS011;59512;42.662;23.254;2023-01-04T10:51:20;19.23;;;10.80;;
71679;SDS011;59512;42.662;23.254;2023-01-04T10:53:53;19.50;;;11.73;;
71679;SDS011;59512;42.662;23.254;2023-01-04T10:56:24;18.65;;;10.93;;
71679;SDS011;59512;42.662;23.254;2023-01-04T10:58:57;21.98;;;12.77;;
71679;SDS011;59512;42.662;23.254;2023-01-04T11:04:28;19.20;;;11.07;;
71679;SDS011;59512;42.662;23.254;2023-01-04T11:07:06;20.13;;;11.15;;
71679;SDS011;59512;42.662;23.254;2023-01-04T11:09:50;20.92;;;11.88;;
71679;SDS011;59512;42.662;23.254;2023-01-04T11:12:18;19.63;;;10.70;;
71679;SDS011;59512;42.662;23.254;2023-01-04T11:14:46;21.07;;;11.30;;
71679;SDS011;59512;42.662;23.254;2023-01-04T11:17:12;21.73;;;11.93;;
71679;SDS011;59512;42.662;23.254;2023-01-04T11:19:38;20.37;;;12.10;;
71679;SDS011;59512;42.662;23.254;2023-01-04T11:22:14;19.50;;;10.80;;
71679;SDS011;59512;42.662;23.254;2023-01-04T11:24:46;19.17;;;10.30;;
71679;SDS011;59512;42.662;23.254;2023-01-04T11:27:18;20.52;;;11.27;;
71679;SDS011;59512;42.662;23.254;2023-01-04T11:33:09;16.70;;;9.43;;
71679;SDS011;59512;42.662;23.254;2023-01-04T11:35:40;19.20;;;10.45;;
71679;SDS011;59512;42.662;23.254;2023-01-04T11:38:09;17.52;;;10.05;;
71679;SDS011;59512;42.662;23.254;2023-01-04T11:40:36;19.27;;;10.50;;
71679;SDS011;59512;42.662;23.254;2023-01-04T11:43:14;24.13;;;12.10;;
71679;SDS011;59512;42.662;23.254;2023-01-04T11:45:53;18.05;;;10.38;;
71679;SDS011;59512;42.662;23.254;2023-01-04T11:48:36;20.10;;;10.83;;
71679;SDS011;59512;42.662;23.254;2023-01-04T11:51:04;19.55;;;10.55;;
71679;SDS011;59512;42.662;23.254;2023-01-04T11:53:34;19.73;;;11.57;;
71679;SDS011;59512;42.662;23.254;2023-01-04T11:56:17;17.88;;;10.48;;
71679;SDS011;59512;42.662;23.254;2023-01-04T11:58:44;20.27;;;10.73;;
71679;SDS011;59512;42.662;23.254;2023-01-04T12:01:26;21.47;;;11.17;;
71679;SDS011;59512;42.662;23.254;2023-01-04T12:03:51;20.23;;;10.73;;
71679;SDS011;59512;42.662;23.254;2023-01-04T12:06:18;16.67;;;9.63;;
71679;SDS011;59512;42.662;23.254;2023-01-04T12:08:46;19.50;;;11.30;;
71679;SDS011;59512;42.662;23.254;2023-01-04T12:11:19;20.70;;;11.60;;
71679;SDS011;59512;42.662;23.254;2023-01-04T12:13:48;21.38;;;12.38;;
71679;SDS011;59512;42.662;23.254;2023-01-04T12:19:01;17.70;;;9.88;;
71679;SDS011;59512;42.662;23.254;2023-01-04T12:21:30;29.73;;;14.25;;
71679;SDS011;59512;42.662;23.254;2023-01-04T12:23:57;16.10;;;9.20;;
71679;SDS011;59512;42.662;23.254;2023-01-04T12:26:22;19.95;;;10.85;;
71679;SDS011;59512;42.662;23.254;2023-01-04T12:29:40;17.83;;;9.33;;
71679;SDS011;59512;42.662;23.254;2023-01-04T12:31:52;18.85;;;8.93;;
71679;SDS011;59512;42.662;23.254;2023-01-04T12:34:38;18.47;;;9.00;;
71679;SDS011;59512;42.662;23.254;2023-01-04T12:37:04;15.63;;;8.85;;
71679;SDS011;59512;42.662;23.254;2023-01-04T12:39:43;18.80;;;10.20;;
71679;SDS011;59512;42.662;23.254;2023-01-04T12:42:11;16.58;;;8.73;;
71679;SDS011;59512;42.662;23.254;2023-01-04T12:50:01;14.95;;;8.18;;
71679;SDS011;59512;42.662;23.254;2023-01-04T12:52:44;14.45;;;7.68;;
71679;SDS011;59512;42.662;23.254;2023-01-04T12:58:00;16.13;;;8.70;;
71679;SDS011;59512;42.662;23.254;2023-01-04T13:06:03;16.13;;;9.37;;
71679;SDS011;59512;42.662;23.254;2023-01-04T13:08:30;17.95;;;10.15;;
71679;SDS011;59512;42.662;23.254;2023-01-04T13:11:00;16.95;;;9.25;;
71679;SDS011;59512;42.662;23.254;2023-01-04T13:18:54;16.73;;;9.13;;
71679;SDS011;59512;42.662;23.254;2023-01-04T13:24:20;16.75;;;9.13;;
71679;SDS011;59512;42.662;23.254;2023-01-04T13:26:46;16.13;;;8.63;;
71679;SDS011;59512;42.662;23.254;2023-01-04T13:39:35;20.15;;;9.75;;
71679;SDS011;59512;42.662;23.254;2023-01-04T13:42:01;16.00;;;9.48;;
71679;SDS011;59512;42.662;23.254;2023-01-04T13:44:50;16.67;;;9.70;;
71679;SDS011;59512;42.662;23.254;2023-01-04T13:47:25;19.17;;;10.50;;
71679;SDS011;59512;42.662;23.254;2023-01-04T13:49:52;17.40;;;9.45;;
71679;SDS011;59512;42.662;23.254;2023-01-04T13:52:24;20.83;;;9.37;;
71679;SDS011;59512;42.662;23.254;2023-01-04T13:54:51;18.25;;;9.98;;
71679;SDS011;59512;42.662;23.254;2023-01-04T13:57:55;17.33;;;9.88;;
71679;SDS011;59512;42.662;23.254;2023-01-04T14:00:20;17.92;;;9.77;;
71679;SDS011;59512;42.662;23.254;2023-01-04T14:02:46;21.93;;;9.97;;
71679;SDS011;59512;42.662;23.254;2023-01-04T14:05:24;17.10;;;10.10;;
71679;SDS011;59512;42.662;23.254;2023-01-04T14:07:49;17.60;;;9.77;;
71679;SDS011;59512;42.662;23.254;2023-01-04T14:10:15;20.73;;;10.90;;
71679;SDS011;59512;42.662;23.254;2023-01-04T14:12:42;20.45;;;11.50;;
71679;SDS011;59512;42.662;23.254;2023-01-04T14:15:23;21.08;;;11.65;;
71679;SDS011;59512;42.662;23.254;2023-01-04T14:17:50;18.27;;;10.80;;
71679;SDS011;59512;42.662;23.254;2023-01-04T14:38:33;23.23;;;13.20;;
71679;SDS011;59512;42.662;23.254;2023-01-04T14:43:51;23.30;;;13.23;;
71679;SDS011;59512;42.662;23.254;2023-01-04T14:46:18;21.60;;;12.18;;
71679;SDS011;59512;42.662;23.254;2023-01-04T14:48:44;23.50;;;12.23;;
71679;SDS011;59512;42.662;23.254;2023-01-04T14:51:11;23.80;;;13.17;;
71679;SDS011;59512;42.662;23.254;2023-01-04T14:53:39;23.42;;;12.60;;
71679;SDS011;59512;42.662;23.254;2023-01-04T14:56:06;25.38;;;13.02;;
71679;SDS011;59512;42.662;23.254;2023-01-04T14:58:33;22.63;;;13.68;;
71679;SDS011;59512;42.662;23.254;2023-01-04T15:00:59;23.87;;;13.93;;
71679;SDS011;59512;42.662;23.254;2023-01-04T15:03:24;25.00;;;14.20;;
71679;SDS011;59512;42.662;23.254;2023-01-04T15:05:49;22.47;;;12.50;;
71679;SDS011;59512;42.662;23.254;2023-01-04T15:08:15;25.70;;;13.43;;
71679;SDS011;59512;42.662;23.254;2023-01-04T15:10:40;32.43;;;14.90;;
71679;SDS011;59512;42.662;23.254;2023-01-04T15:13:06;26.77;;;15.15;;
71679;SDS011;59512;42.662;23.254;2023-01-04T15:15:31;23.57;;;12.50;;
71679;SDS011;59512;42.662;23.254;2023-01-04T15:17:57;26.40;;;14.63;;
71679;SDS011;59512;42.662;23.254;2023-01-04T15:20:23;28.17;;;15.02;;
71679;SDS011;59512;42.662;23.254;2023-01-04T15:22:48;26.90;;;14.27;;
71679;SDS011;59512;42.662;23.254;2023-01-04T15:25:14;26.10;;;13.32;;
71679;SDS011;59512;42.662;23.254;2023-01-04T15:27:39;24.27;;;14.40;;
71679;SDS011;59512;42.662;23.254;2023-01-04T15:30:05;28.33;;;14.73;;
71679;SDS011;59512;42.662;23.254;2023-01-04T15:32:31;28.05;;;14.80;;
71679;SDS011;59512;42.662;23.254;2023-01-04T15:34:58;24.92;;;14.68;;
71679;SDS011;59512;42.662;23.254;2023-01-04T15:37:23;25.33;;;14.03;;
71679;SDS011;59512;42.662;23.254;2023-01-04T15:39:48;30.10;;;16.13;;
71679;SDS011;59512;42.662;23.254;2023-01-04T15:42:14;26.97;;;15.40;;
71679;SDS011;59512;42.662;23.254;2023-01-04T15:44:57;28.30;;;15.40;;
71679;SDS011;59512;42.662;23.254;2023-01-04T15:47:23;28.47;;;16.07;;
71679;SDS011;59512;42.662;23.254;2023-01-04T15:49:48;28.02;;;15.27;;
71679;SDS011;59512;42.662;23.254;2023-01-04T15:52:14;30.17;;;15.73;;
71679;SDS011;59512;42.662;23.254;2023-01-04T15:54:39;27.57;;;16.40;;
71679;SDS011;59512;42.662;23.254;2023-01-04T15:57:05;31.83;;;17.25;;
71679;SDS011;59512;42.662;23.254;2023-01-04T15:59:31;29.63;;;16.27;;
71679;SDS011;59512;42.662;23.254;2023-01-04T16:01:56;29.43;;;16.50;;
71679;SDS011;59512;42.662;23.254;2023-01-04T16:04:22;31.47;;;17.27;;
71679;SDS011;59512;42.662;23.254;2023-01-04T16:06:47;34.08;;;17.77;;
71679;SDS011;59512;42.662;23.254;2023-01-04T16:09:13;31.20;;;17.03;;
71679;SDS011;59512;42.662;23.254;2023-01-04T16:11:38;30.55;;;17.63;;
71679;SDS011;59512;42.662;23.254;2023-01-04T16:14:24;30.83;;;17.87;;
71679;SDS011;59512;42.662;23.254;2023-01-04T16:16:49;32.08;;;19.67;;
71679;SDS011;59512;42.662;23.254;2023-01-04T16:19:15;30.50;;;17.03;;
71679;SDS011;59512;42.662;23.254;2023-01-04T16:21:40;25.67;;;15.27;;
71679;SDS011;59512;42.662;23.254;2023-01-04T16:24:07;29.90;;;16.70;;
71679;SDS011;59512;42.662;23.254;2023-01-04T16:26:34;30.88;;;16.65;;
71679;SDS011;59512;42.662;23.254;2023-01-04T16:28:59;30.40;;;16.43;;
71679;SDS011;59512;42.662;23.254;2023-01-04T16:31:24;28.47;;;17.87;;
71679;SDS011;59512;42.662;23.254;2023-01-04T16:33:50;30.37;;;15.40;;
71679;SDS011;59512;42.662;23.254;2023-01-04T16:36:17;29.02;;;15.60;;
71679;SDS011;59512;42.662;23.254;2023-01-04T16:38:43;28.97;;;16.47;;
71679;SDS011;59512;42.662;23.254;2023-01-04T16:41:10;30.40;;;16.88;;
71679;SDS011;59512;42.662;23.254;2023-01-04T16:43:44;26.17;;;14.48;;